Time;durP1;ratioP1;P1;durP2;ratioP2;P2;SDS_P1;SDS_P2;PMS_P1;PMS_P2;Temp;Humidity;BMP_temperature;BMP_pressure;BME280_temperature;BME280_humidity;BME280_pressure;Samples;Min_cycle;Max_cycle;Signal;HPM_P1;HPM_P2
2022/10/28 00:00:49;;;;;;;8.00;4.18;;;16.40;86.50;;;;;;4897204;29;19920;-28
2022/10/28 00:03:15;;;;;;;9.27;3.95;;;16.30;86.50;;;;;;4897164;29;20047;-28
2022/10/28 00:05:41;;;;;;;8.55;4.38;;;16.30;86.60;;;;;;4897217;29;20448;-27
2022/10/28 00:08:06;;;;;;;8.55;4.45;;;16.30;86.60;;;;;;4897153;29;20196;-27
2022/10/28 00:10:32;;;;;;;7.47;4.55;;;16.20;86.60;;;;;;4897066;29;20037;-28
2022/10/28 00:12:58;;;;;;;6.95;4.68;;;16.20;86.70;;;;;;4897023;29;20067;-27
2022/10/28 00:15:23;;;;;;;7.25;4.50;;;16.20;86.80;;;;;;4897091;29;20029;-31
2022/10/28 00:17:49;;;;;;;8.98;4.57;;;16.10;86.80;;;;;;4897076;29;20047;-32
2022/10/28 00:20:14;;;;;;;8.63;4.93;;;16.20;86.90;;;;;;4897430;29;20088;-40
2022/10/28 00:22:41;;;;;;;11.48;5.05;;;16.10;86.90;;;;;;4897251;29;20025;-38
2022/10/28 00:25:07;;;;;;;10.43;4.80;;;16.10;87.00;;;;;;4897102;29;20032;-38
2022/10/28 00:27:32;;;;;;;8.13;4.70;;;16.10;87.00;;;;;;4896965;29;20028;-43
2022/10/28 00:29:59;;;;;;;9.60;4.90;;;16.20;87.10;;;;;;4897276;29;20454;-42
2022/10/28 00:32:24;;;;;;;8.05;4.95;;;16.10;87.10;;;;;;4897024;29;20016;-42
2022/10/28 00:34:50;;;;;;;9.55;4.72;;;16.10;87.10;;;;;;4897010;29;20093;-42
2022/10/28 00:37:15;;;;;;;7.57;4.85;;;16.10;87.20;;;;;;4896753;29;20037;-39
2022/10/28 00:39:41;;;;;;;9.10;5.07;;;16.10;87.20;;;;;;4897025;29;20041;-28
2022/10/28 00:42:09;;;;;;;8.02;4.25;;;16.10;87.20;;;;;;4896851;29;20116;-27
2022/10/28 00:44:57;;;;;;;9.30;5.05;;;16.10;87.30;;;;;;4896999;29;20035;-27
2022/10/28 00:47:41;;;;;;;7.60;4.38;;;16.00;87.90;;;;;;4896885;29;20032;-27
2022/10/28 00:50:21;;;;;;;6.57;5.00;;;16.10;87.40;;;;;;4896797;29;20031;-27
2022/10/28 00:52:52;;;;;;;9.02;5.05;;;16.00;87.40;;;;;;4899140;29;20025;-28
2022/10/28 00:55:20;;;;;;;9.45;4.38;;;16.00;87.40;;;;;;4900492;29;20453;-27
2022/10/28 00:57:46;;;;;;;7.38;5.28;;;16.00;87.40;;;;;;4900631;29;20021;-27
2022/10/28 01:00:12;;;;;;;6.88;4.63;;;16.00;87.50;;;;;;4900313;29;20446;-29
2022/10/28 01:02:48;;;;;;;9.35;4.90;;;16.00;87.50;;;;;;4900636;29;20532;-31
2022/10/28 01:05:18;;;;;;;6.50;4.68;;;16.00;87.60;;;;;;4883679;29;20392;-29
2022/10/28 01:07:44;;;;;;;9.57;5.18;;;16.00;87.60;;;;;;4900691;29;20097;-28
2022/10/28 01:10:12;;;;;;;9.23;5.32;;;16.00;87.70;;;;;;4900384;29;20476;-27
2022/10/28 01:13:02;;;;;;;9.02;5.20;;;16.00;87.70;;;;;;4900573;29;20025;-27
2022/10/28 01:15:40;;;;;;;9.85;4.90;;;16.00;87.80;;;;;;4883388;29;20033;-24
2022/10/28 01:18:45;;;;;;;7.38;4.95;;;16.00;87.80;;;;;;4900262;29;20051;-27
2022/10/28 01:21:19;;;;;;;6.85;5.00;;;15.90;87.80;;;;;;4900137;29;20469;-24
2022/10/28 01:23:59;;;;;;;8.68;5.05;;;15.90;87.80;;;;;;4900309;29;20112;-26
2022/10/28 01:26:29;;;;;;;8.25;5.15;;;15.90;87.90;;;;;;4900014;29;20036;-25
2022/10/28 01:29:16;;;;;;;9.63;5.38;;;15.90;87.90;;;;;;4900032;29;20035;-28
2022/10/28 01:31:52;;;;;;;8.98;4.72;;;15.90;88.00;;;;;;4899809;29;20516;-29
2022/10/28 01:34:35;;;;;;;12.40;5.50;;;15.90;88.50;;;;;;4899859;29;20033;-28
2022/10/28 01:37:14;;;;;;;8.02;4.50;;;15.90;88.00;;;;;;4899851;29;20082;-29
2022/10/28 01:40:06;;;;;;;8.50;4.95;;;15.80;87.90;;;;;;4899752;29;20039;-28
2022/10/28 01:42:44;;;;;;;8.90;4.97;;;15.80;88.00;;;;;;4899514;29;20033;-27
2022/10/28 01:45:24;;;;;;;6.65;4.95;;;15.80;88.00;;;;;;4899484;29;20028;-31
2022/10/28 01:47:57;;;;;;;8.07;4.88;;;15.80;88.00;;;;;;4899756;29;20111;-28
2022/10/28 01:50:47;;;;;;;9.10;5.32;;;15.80;88.10;;;;;;4899520;29;20143;-27
2022/10/28 01:53:18;;;;;;;8.52;5.07;;;15.80;88.20;;;;;;4899309;29;20033;-29
2022/10/28 01:55:50;;;;;;;7.72;5.40;;;15.80;88.80;;;;;;4899642;29;20068;-27
2022/10/28 01:58:22;;;;;;;8.70;5.32;;;15.80;88.30;;;;;;4899168;29;20040;-28
2022/10/28 02:00:49;;;;;;;7.72;5.47;;;15.70;88.30;;;;;;4898994;29;20131;-27
2022/10/28 02:03:15;;;;;;;11.70;5.50;;;15.70;88.30;;;;;;4898491;29;20591;-27
2022/10/28 02:05:48;;;;;;;10.00;5.10;;;15.70;88.30;;;;;;4899516;29;20079;-27
2022/10/28 02:08:16;;;;;;;10.38;5.13;;;15.70;89.00;;;;;;4899050;29;20024;-30
2022/10/28 02:11:02;;;;;;;9.95;5.30;;;15.70;88.40;;;;;;4899378;29;20402;-30
2022/10/28 02:14:00;;;;;;;8.82;5.60;;;15.70;88.40;;;;;;4898986;29;20024;-28
2022/10/28 02:16:43;;;;;;;6.60;4.60;;;15.60;88.40;;;;;;4880460;29;20193;-30
2022/10/28 02:19:14;;;;;;;9.85;5.22;;;15.60;88.40;;;;;;4898969;29;20307;-27
2022/10/28 02:22:10;;;;;;;8.40;5.53;;;15.60;89.10;;;;;;4898916;29;20031;-27
2022/10/28 02:24:48;;;;;;;8.55;4.88;;;15.50;88.50;;;;;;4899215;29;20062;-31
2022/10/28 02:27:40;;;;;;;9.48;5.28;;;15.50;88.60;;;;;;4899129;29;20138;-30
2022/10/28 02:30:22;;;;;;;9.18;5.40;;;15.50;88.60;;;;;;4898818;29;20035;-40
2022/10/28 02:32:52;;;;;;;8.38;5.20;;;15.50;88.70;;;;;;4882025;29;20048;-39
2022/10/28 02:35:27;;;;;;;7.35;5.28;;;15.50;88.70;;;;;;4899085;29;20029;-40
2022/10/28 02:37:55;;;;;;;9.98;5.15;;;15.40;88.70;;;;;;4898865;29;20025;-36
2022/10/28 02:40:25;;;;;;;9.70;4.78;;;15.50;88.80;;;;;;4899144;29;20111;-40
2022/10/28 02:42:56;;;;;;;8.63;5.60;;;15.50;88.80;;;;;;4898695;29;20482;-40
2022/10/28 02:45:27;;;;;;;7.40;5.07;;;15.50;88.90;;;;;;4898648;29;20024;-39
2022/10/28 02:48:15;;;;;;;6.30;5.07;;;15.50;88.90;;;;;;4898897;29;20488;-41
2022/10/28 02:50:50;;;;;;;7.13;4.60;;;15.50;88.90;;;;;;4898578;29;20040;-49
2022/10/28 02:53:21;;;;;;;10.07;5.45;;;15.50;88.90;;;;;;4898592;29;20139;-39
2022/10/28 02:55:53;;;;;;;10.82;5.63;;;15.50;88.90;;;;;;4898368;29;20056;-34
2022/10/28 02:58:19;;;;;;;10.30;5.05;;;15.50;88.90;;;;;;4898647;29;20029;-34
2022/10/28 03:00:45;;;;;;;9.35;5.43;;;15.50;89.60;;;;;;4881469;29;20053;-35
2022/10/28 03:03:12;;;;;;;9.80;5.28;;;15.50;88.90;;;;;;4898271;29;20043;-34
2022/10/28 03:05:38;;;;;;;8.18;5.22;;;15.40;88.90;;;;;;4898455;29;20036;-34
2022/10/28 03:08:04;;;;;;;8.70;5.25;;;15.50;88.90;;;;;;4898561;29;20025;-34
2022/10/28 03:10:29;;;;;;;9.68;5.10;;;15.50;89.00;;;;;;4898328;29;20089;-34
2022/10/28 03:12:55;;;;;;;8.05;4.65;;;15.50;89.00;;;;;;4898192;29;20381;-34
2022/10/28 03:15:20;;;;;;;7.30;4.80;;;15.50;89.00;;;;;;4897809;29;20040;-27
2022/10/28 03:17:46;;;;;;;10.10;5.32;;;15.50;89.00;;;;;;4898178;29;20040;-28
2022/10/28 03:20:12;;;;;;;8.57;5.30;;;15.50;89.00;;;;;;4898134;29;20670;-35
2022/10/28 03:22:37;;;;;;;10.45;4.97;;;15.50;88.90;;;;;;4898029;29;20507;-30
2022/10/28 03:25:04;;;;;;;7.60;4.47;;;15.50;88.90;;;;;;4897787;29;20024;-29
2022/10/28 03:27:29;;;;;;;9.88;4.82;;;15.50;88.90;;;;;;4898032;29;20039;-29
2022/10/28 03:29:55;;;;;;;7.18;4.07;;;15.50;88.90;;;;;;4897842;29;20493;-33
2022/10/28 03:32:20;;;;;;;9.68;4.95;;;15.50;88.80;;;;;;4897626;29;20345;-27
2022/10/28 03:34:46;;;;;;;9.30;4.90;;;15.50;88.80;;;;;;4897779;29;20092;-26
2022/10/28 03:37:12;;;;;;;8.52;4.45;;;15.50;88.70;;;;;;4897730;29;20381;-29
2022/10/28 03:39:38;;;;;;;12.43;4.75;;;15.50;88.70;;;;;;4897905;29;20056;-32
2022/10/28 03:42:03;;;;;;;7.72;4.43;;;15.50;88.70;;;;;;4897593;29;20029;-28
2022/10/28 03:44:29;;;;;;;8.00;4.95;;;15.50;88.80;;;;;;4897476;29;20028;-27
2022/10/28 03:46:55;;;;;;;6.38;4.53;;;15.50;88.70;;;;;;4897851;29;20032;-33
2022/10/28 03:49:20;;;;;;;7.55;4.70;;;15.40;88.70;;;;;;4897641;29;20576;-28
2022/10/28 03:51:46;;;;;;;7.90;4.93;;;15.40;88.70;;;;;;4897687;29;20040;-30
2022/10/28 03:54:11;;;;;;;5.25;4.38;;;15.40;88.70;;;;;;4897266;29;20511;-29
2022/10/28 03:56:39;;;;;;;9.75;4.57;;;15.40;88.70;;;;;;4897143;29;20131;-31
2022/10/28 03:59:05;;;;;;;5.50;4.38;;;15.40;88.70;;;;;;4897333;29;20107;-27
2022/10/28 04:01:31;;;;;;;8.98;4.55;;;15.40;88.70;;;;;;4897353;29;20143;-29
2022/10/28 04:03:56;;;;;;;7.55;4.80;;;15.30;88.70;;;;;;4897280;29;20087;-30
2022/10/28 04:06:22;;;;;;;7.88;4.55;;;15.30;88.70;;;;;;4897315;29;20381;-31
2022/10/28 04:08:47;;;;;;;7.43;4.63;;;15.30;88.70;;;;;;4897234;29;20099;-28
2022/10/28 04:11:13;;;;;;;9.48;4.78;;;15.20;88.70;;;;;;4897365;29;20040;-28
2022/10/28 04:13:39;;;;;;;9.40;3.97;;;15.20;88.80;;;;;;4897583;29;20057;-28
2022/10/28 04:16:05;;;;;;;10.35;4.38;;;15.20;88.90;;;;;;4897212;29;20101;-28
2022/10/28 04:18:31;;;;;;;7.35;4.57;;;15.20;88.90;;;;;;4897095;29;20033;-28
2022/10/28 04:20:56;;;;;;;9.60;5.13;;;15.20;88.90;;;;;;4896994;29;20042;-28
2022/10/28 04:23:22;;;;;;;6.78;4.43;;;15.20;88.90;;;;;;4896984;29;20068;-32
2022/10/28 04:25:52;;;;;;;8.02;4.40;;;15.20;88.90;;;;;;4897002;29;20151;-28
2022/10/28 04:28:17;;;;;;;8.32;4.47;;;15.10;88.80;;;;;;4896840;29;20482;-30
2022/10/28 04:30:46;;;;;;;9.35;4.03;;;15.10;88.80;;;;;;4896809;29;20072;-28
2022/10/28 04:33:12;;;;;;;7.05;4.38;;;15.10;88.80;;;;;;4896856;29;20037;-27
2022/10/28 04:35:38;;;;;;;7.43;4.30;;;15.10;88.80;;;;;;4897097;29;20385;-27
2022/10/28 04:38:03;;;;;;;8.35;5.22;;;15.10;88.90;;;;;;4897112;29;20397;-31
2022/10/28 04:40:29;;;;;;;8.48;4.60;;;15.00;88.90;;;;;;4896990;29;20040;-30
2022/10/28 04:42:55;;;;;;;6.03;4.20;;;15.00;88.90;;;;;;4896896;29;20115;-29
2022/10/28 04:45:20;;;;;;;6.00;3.97;;;15.00;89.00;;;;;;4879991;29;20128;-28
2022/10/28 04:47:46;;;;;;;12.80;4.72;;;15.00;89.00;;;;;;4896927;29;20116;-28
2022/10/28 04:50:12;;;;;;;8.25;4.07;;;15.00;89.00;;;;;;4896802;29;20060;-27
2022/10/28 04:52:37;;;;;;;7.72;4.07;;;14.90;88.90;;;;;;4896805;29;20097;-30
2022/10/28 04:55:03;;;;;;;6.38;4.20;;;14.90;88.90;;;;;;4880231;29;20068;-28
2022/10/28 04:57:29;;;;;;;7.85;4.03;;;14.90;89.00;;;;;;4896863;29;20493;-31
2022/10/28 04:59:54;;;;;;;7.20;4.00;;;14.80;89.00;;;;;;4896568;29;20072;-30
2022/10/28 05:02:22;;;;;;;7.03;4.15;;;14.90;89.10;;;;;;4896602;29;20033;-27
2022/10/28 05:04:47;;;;;;;11.40;4.55;;;14.80;89.10;;;;;;4896686;29;20041;-28
2022/10/28 05:07:13;;;;;;;6.68;4.07;;;14.80;89.10;;;;;;4896922;29;20465;-30
2022/10/28 05:09:39;;;;;;;7.93;3.75;;;14.80;89.20;;;;;;4896594;29;20040;-27
2022/10/28 05:12:05;;;;;;;11.00;5.00;;;14.80;89.20;;;;;;4879585;29;20497;-29
2022/10/28 05:14:31;;;;;;;8.63;4.10;;;14.80;89.30;;;;;;4896440;29;20325;-27
2022/10/28 05:16:56;;;;;;;8.80;4.13;;;14.70;89.20;;;;;;4879456;29;20040;-30
2022/10/28 05:19:22;;;;;;;7.68;4.10;;;14.70;89.20;;;;;;4896142;29;20496;-29
2022/10/28 05:21:47;;;;;;;9.98;4.43;;;14.70;89.20;;;;;;4896299;29;20029;-28
2022/10/28 05:24:13;;;;;;;6.95;4.35;;;14.70;89.30;;;;;;4896362;29;20108;-29
2022/10/28 05:26:38;;;;;;;8.32;4.65;;;14.70;89.70;;;;;;4896410;29;20112;-27
2022/10/28 05:29:04;;;;;;;6.57;3.90;;;14.70;89.30;;;;;;4896481;29;20033;-27
2022/10/28 05:31:30;;;;;;;7.05;4.32;;;14.60;89.30;;;;;;4896364;29;20048;-27
2022/10/28 05:33:55;;;;;;;6.85;4.25;;;14.60;89.30;;;;;;4879351;29;20063;-29
2022/10/28 05:36:21;;;;;;;9.50;4.53;;;14.60;89.30;;;;;;4896174;29;20485;-33
2022/10/28 05:38:48;;;;;;;11.02;4.47;;;14.60;89.40;;;;;;4897266;29;20406;-28
2022/10/28 05:41:14;;;;;;;6.18;4.13;;;14.60;89.40;;;;;;4899750;29;20119;-28
2022/10/28 05:43:39;;;;;;;7.70;4.15;;;14.60;89.50;;;;;;4899775;29;20532;-28
2022/10/28 05:46:05;;;;;;;8.18;4.10;;;14.60;89.50;;;;;;4899803;29;20426;-27
2022/10/28 05:48:30;;;;;;;8.02;4.25;;;14.50;89.40;;;;;;4899413;29;20048;-27
2022/10/28 05:50:56;;;;;;;8.05;4.30;;;14.50;89.40;;;;;;4899575;29;20048;-27
2022/10/28 05:53:22;;;;;;;8.57;4.45;;;14.50;89.40;;;;;;4899370;29;20096;-29
2022/10/28 05:55:47;;;;;;;7.45;4.22;;;14.50;90.00;;;;;;4899407;29;20039;-29
2022/10/28 05:58:13;;;;;;;9.15;4.70;;;14.50;89.40;;;;;;4899370;29;20036;-28
2022/10/28 06:00:39;;;;;;;7.40;4.18;;;14.50;89.40;;;;;;4898947;29;20608;-29
2022/10/28 06:03:10;;;;;;;10.18;4.40;;;14.50;89.40;;;;;;4899285;29;20123;-28
2022/10/28 06:05:42;;;;;;;11.30;4.43;;;14.50;89.40;;;;;;4899045;29;20414;-31
2022/10/28 06:08:11;;;;;;;11.45;5.03;;;14.50;89.50;;;;;;4899140;29;20036;-28
2022/10/28 06:10:36;;;;;;;11.82;4.45;;;14.50;89.50;;;;;;4898974;29;20120;-28
2022/10/28 06:13:02;;;;;;;10.25;5.05;;;14.50;89.50;;;;;;4898914;29;20111;-29
2022/10/28 06:15:28;;;;;;;9.65;4.30;;;14.40;89.40;;;;;;4898787;29;20496;-27
2022/10/28 06:17:53;;;;;;;7.90;4.30;;;14.40;89.50;;;;;;4898989;29;20434;-34
2022/10/28 06:20:19;;;;;;;9.73;4.30;;;14.40;89.50;;;;;;4898819;29;20079;-29
2022/10/28 06:22:53;;;;;;;8.23;4.32;;;14.40;89.50;;;;;;4899072;29;20102;-27
2022/10/28 06:25:20;;;;;;;5.38;4.28;;;14.40;89.50;;;;;;4898799;29;20092;-27
2022/10/28 06:27:52;;;;;;;10.10;4.55;;;14.30;89.50;;;;;;4898769;29;20124;-28
2022/10/28 06:30:18;;;;;;;9.70;4.63;;;14.30;89.50;;;;;;4899062;29;20025;-31
2022/10/28 06:32:43;;;;;;;8.70;4.45;;;14.30;89.60;;;;;;4899059;29;20032;-29
2022/10/28 06:35:09;;;;;;;6.68;4.40;;;14.30;89.60;;;;;;4898707;29;20025;-28
2022/10/28 06:37:34;;;;;;;7.68;4.18;;;14.30;90.10;;;;;;4898718;29;20037;-29
2022/10/28 06:40:00;;;;;;;10.50;4.72;;;14.30;89.50;;;;;;4898451;29;20029;-33
2022/10/28 06:42:25;;;;;;;12.02;4.65;;;14.40;89.60;;;;;;4898467;29;20545;-27
2022/10/28 06:44:53;;;;;;;7.45;4.55;;;14.30;89.40;;;;;;4898280;29;20063;-27
2022/10/28 06:47:19;;;;;;;6.55;4.47;;;14.40;89.50;;;;;;4898409;29;20039;-28
2022/10/28 06:49:45;;;;;;;7.05;4.32;;;14.40;89.50;;;;;;4898031;29;20115;-30
2022/10/28 06:52:10;;;;;;;10.65;5.43;;;14.40;89.40;;;;;;4898404;29;20068;-28
2022/10/28 06:54:36;;;;;;;8.52;5.03;;;14.40;89.40;;;;;;4898449;29;20035;-28
2022/10/28 06:57:01;;;;;;;9.73;4.70;;;14.40;89.40;;;;;;4898430;29;20060;-27
2022/10/28 06:59:27;;;;;;;10.68;5.13;;;14.50;89.40;;;;;;4898272;29;20028;-29
2022/10/28 07:01:52;;;;;;;8.02;5.00;;;14.50;89.30;;;;;;4898563;29;20485;-33
2022/10/28 07:04:18;;;;;;;9.90;4.53;;;14.60;89.30;;;;;;4898756;29;20088;-30
2022/10/28 07:06:43;;;;;;;11.85;4.63;;;14.60;89.20;;;;;;4898476;29;20028;-31
2022/10/28 07:09:13;;;;;;;9.00;5.15;;;14.70;89.70;;;;;;4898504;29;20035;-30
2022/10/28 07:11:39;;;;;;;9.63;4.68;;;14.70;89.00;;;;;;4898346;29;20032;-30
2022/10/28 07:14:04;;;;;;;11.05;4.75;;;14.70;89.00;;;;;;4898425;29;20025;-29
2022/10/28 07:16:30;;;;;;;7.97;4.60;;;14.80;89.50;;;;;;4898263;29;20095;-29
2022/10/28 07:18:55;;;;;;;10.20;4.43;;;14.80;88.90;;;;;;4898326;29;20381;-33
2022/10/28 07:21:27;;;;;;;9.20;4.47;;;14.90;88.90;;;;;;4898329;29;20040;-29
2022/10/28 07:23:53;;;;;;;8.57;4.38;;;14.90;88.80;;;;;;4898422;29;20437;-28
2022/10/28 07:26:18;;;;;;;7.72;4.15;;;14.90;88.80;;;;;;4897979;29;20064;-27
2022/10/28 07:28:44;;;;;;;5.20;4.00;;;14.90;88.70;;;;;;4898006;29;20131;-28
2022/10/28 07:31:09;;;;;;;8.75;4.57;;;15.00;88.60;;;;;;4897868;29;20024;-35
2022/10/28 07:33:35;;;;;;;12.20;4.55;;;15.10;88.60;;;;;;4898221;29;20080;-30
2022/10/28 07:36:04;;;;;;;12.32;4.35;;;15.10;88.50;;;;;;4897803;29;20512;-30
2022/10/28 07:38:30;;;;;;;12.02;5.03;;;15.20;88.50;;;;;;4897519;29;20029;-29
2022/10/28 07:40:56;;;;;;;9.38;4.50;;;15.20;88.40;;;;;;4897729;29;20043;-30
2022/10/28 07:43:22;;;;;;;11.43;4.50;;;15.30;88.30;;;;;;4897929;29;20025;-31
2022/10/28 07:45:47;;;;;;;9.13;4.75;;;15.30;88.20;;;;;;4897477;29;20461;-30
2022/10/28 07:48:13;;;;;;;8.40;4.35;;;15.30;88.20;;;;;;4897731;29;20029;-30
2022/10/28 07:50:40;;;;;;;11.52;4.55;;;15.40;88.20;;;;;;4897767;29;20491;-31
2022/10/28 07:53:05;;;;;;;13.57;4.85;;;15.40;88.10;;;;;;4897997;29;20033;-29
2022/10/28 07:55:31;;;;;;;8.65;5.05;;;15.40;88.10;;;;;;4897462;29;20069;-28
2022/10/28 07:57:57;;;;;;;9.98;4.63;;;15.40;88.10;;;;;;4897715;29;20020;-29
2022/10/28 08:00:23;;;;;;;11.40;4.35;;;15.50;88.10;;;;;;4880335;29;20048;-31
2022/10/28 08:02:49;;;;;;;7.38;4.30;;;15.60;88.10;;;;;;4896712;29;20039;-29
2022/10/28 08:05:14;;;;;;;6.63;4.50;;;15.60;88.00;;;;;;4897425;29;20481;-31
2022/10/28 08:07:40;;;;;;;10.85;4.40;;;15.70;87.90;;;;;;4897526;29;20100;-29
2022/10/28 08:10:06;;;;;;;8.98;5.28;;;15.80;87.80;;;;;;4897252;29;20047;-29
2022/10/28 08:12:32;;;;;;;11.30;4.70;;;15.80;87.70;;;;;;4897579;29;20028;-30
2022/10/28 08:14:57;;;;;;;11.93;5.20;;;15.90;87.60;;;;;;4897455;29;20027;-30
2022/10/28 08:17:23;;;;;;;10.70;4.85;;;15.90;87.60;;;;;;4897260;29;20480;-31
2022/10/28 08:19:48;;;;;;;9.98;5.18;;;16.00;87.50;;;;;;4897225;29;20029;-29
2022/10/28 08:22:14;;;;;;;11.63;5.35;;;16.10;87.50;;;;;;4897454;29;20021;-29
2022/10/28 08:24:39;;;;;;;11.15;5.35;;;16.20;87.40;;;;;;4897206;29;20034;-32
2022/10/28 08:27:05;;;;;;;15.88;7.63;;;16.30;87.30;;;;;;4897272;29;20029;-32
2022/10/28 08:29:30;;;;;;;13.23;5.97;;;16.40;87.20;;;;;;4897251;29;20515;-31
2022/10/28 08:31:56;;;;;;;13.00;8.98;;;16.40;87.10;;;;;;4897092;29;20033;-27
2022/10/28 08:34:22;;;;;;;10.85;5.53;;;16.50;87.10;;;;;;4896960;29;20029;-29
2022/10/28 08:36:48;;;;;;;8.85;4.72;;;16.50;87.00;;;;;;4897138;29;20017;-31
2022/10/28 08:39:13;;;;;;;7.63;4.82;;;16.60;86.90;;;;;;4896971;29;20052;-30
2022/10/28 08:41:46;;;;;;;11.20;4.90;;;16.70;87.50;;;;;;4897069;29;20326;-33
2022/10/28 08:44:40;;;;;;;10.35;5.20;;;16.80;86.80;;;;;;4897029;29;20032;-35
2022/10/28 08:47:37;;;;;;;8.80;5.00;;;16.90;86.70;;;;;;4896919;29;20033;-33
2022/10/28 08:50:14;;;;;;;8.65;4.78;;;16.90;86.50;;;;;;4897087;29;20366;-35
2022/10/28 08:52:45;;;;;;;11.80;4.82;;;17.00;86.50;;;;;;4897083;29;20029;-31
2022/10/28 08:55:22;;;;;;;9.93;4.90;;;17.10;86.40;;;;;;4896920;29;20080;-31
2022/10/28 08:57:55;;;;;;;11.30;4.57;;;17.20;86.30;;;;;;4896824;29;20029;-31
2022/10/28 09:00:27;;;;;;;7.85;4.45;;;17.30;86.10;;;;;;4896725;29;20044;-33
2022/10/28 09:03:06;;;;;;;14.43;4.80;;;17.40;86.00;;;;;;4897013;29;20357;-30
2022/10/28 09:05:31;;;;;;;10.88;4.32;;;17.50;85.90;;;;;;4896875;29;20269;-30
2022/10/28 09:07:57;;;;;;;8.50;4.03;;;17.60;85.70;;;;;;4897243;29;20484;-35
2022/10/28 09:10:55;;;;;;;10.07;4.40;;;17.70;85.60;;;;;;4879836;29;20028;-29
2022/10/28 09:13:36;;;;;;;8.85;4.18;;;17.80;85.40;;;;;;4881491;29;20475;-32
2022/10/28 09:16:20;;;;;;;9.93;4.10;;;17.90;85.20;;;;;;4900153;29;20043;-29
2022/10/28 09:18:49;;;;;;;7.65;4.05;;;18.00;85.10;;;;;;4900296;29;20033;-29
2022/10/28 09:21:30;;;;;;;7.35;3.90;;;18.10;85.00;;;;;;4900252;29;20057;-28
2022/10/28 09:23:58;;;;;;;8.50;4.15;;;18.20;84.80;;;;;;4900229;29;20032;-30
2022/10/28 09:27:10;;;;;;;9.23;3.88;;;18.30;84.60;;;;;;4900264;29;20365;-29
2022/10/28 09:29:42;;;;;;;8.52;3.60;;;18.50;84.50;;;;;;4900204;29;20034;-28
2022/10/28 09:32:26;;;;;;;8.68;3.55;;;18.60;84.30;;;;;;4899808;29;20081;-31
2022/10/28 09:35:00;;;;;;;8.20;4.60;;;18.80;84.00;;;;;;4900244;29;20608;-31
2022/10/28 09:37:39;;;;;;;7.57;3.55;;;18.80;83.80;;;;;;4899891;29;20021;-27
2022/10/28 09:40:20;;;;;;;8.45;3.50;;;18.90;83.40;;;;;;4900223;29;20036;-28
2022/10/28 09:43:15;;;;;;;6.97;3.15;;;19.00;83.10;;;;;;4900039;29;20477;-33
2022/10/28 09:45:45;;;;;;;7.50;3.60;;;19.10;82.90;;;;;;4899686;29;20071;-29
2022/10/28 09:48:38;;;;;;;6.20;3.67;;;19.20;82.60;;;;;;4899693;29;20031;-29
2022/10/28 09:51:04;;;;;;;7.20;3.22;;;19.20;82.40;;;;;;4899476;29;20485;-29
2022/10/28 09:53:49;;;;;;;6.95;3.28;;;19.30;82.40;;;;;;4899625;29;20021;-34
2022/10/28 09:56:15;;;;;;;10.38;3.47;;;19.40;82.00;;;;;;4899341;29;20493;-30
2022/10/28 09:58:45;;;;;;;6.35;3.53;;;19.40;81.90;;;;;;4899381;29;20025;-31
2022/10/28 10:01:11;;;;;;;7.57;3.45;;;19.50;81.70;;;;;;4899283;29;20498;-27
2022/10/28 10:03:38;;;;;;;8.07;3.35;;;19.60;81.60;;;;;;4899317;29;20059;-31
2022/10/28 10:06:28;;;;;;;6.78;3.58;;;19.60;81.30;;;;;;4899416;29;20033;-45
2022/10/28 10:08:55;;;;;;;6.35;3.40;;;19.70;81.10;;;;;;4899184;29;20606;-31
2022/10/28 10:11:45;;;;;;;7.95;3.45;;;19.70;80.90;;;;;;4898981;29;20389;-29
2022/10/28 10:14:17;;;;;;;8.82;3.70;;;19.70;80.90;;;;;;4899351;29;20561;-30
2022/10/28 10:16:52;;;;;;;9.48;3.97;;;19.70;80.80;;;;;;4899097;29;20028;-28
2022/10/28 10:19:17;;;;;;;10.00;3.38;;;19.80;80.60;;;;;;4882167;29;20033;-34
2022/10/28 10:21:46;;;;;;;6.60;3.58;;;19.90;80.50;;;;;;4899073;29;20453;-27
2022/10/28 10:24:35;;;;;;;9.15;3.42;;;19.90;80.40;;;;;;4898572;29;20112;-30
2022/10/28 10:27:08;;;;;;;5.78;3.10;;;20.00;80.20;;;;;;4893889;29;20544;-29
2022/10/28 10:29:33;;;;;;;9.75;3.50;;;20.00;80.20;;;;;;4898922;29;20036;-28
2022/10/28 10:32:06;;;;;;;7.53;3.20;;;20.00;80.20;;;;;;4898643;29;20028;-33
2022/10/28 10:34:32;;;;;;;5.67;3.20;;;20.00;80.10;;;;;;4899093;29;20354;-28
2022/10/28 10:36:58;;;;;;;7.93;3.30;;;20.00;80.00;;;;;;4898625;29;20036;-31
2022/10/28 10:39:36;;;;;;;10.75;3.70;;;20.00;79.90;;;;;;4898610;29;20017;-43
2022/10/28 10:42:02;;;;;;;9.85;4.50;;;20.10;79.80;;;;;;4898885;29;20027;-31
2022/10/28 10:44:33;;;;;;;5.70;3.50;;;20.10;79.70;;;;;;4898519;29;20033;-31
2022/10/28 10:46:58;;;;;;;7.65;3.55;;;20.10;79.60;;;;;;4881622;29;20033;-30
2022/10/28 10:49:24;;;;;;;10.48;4.05;;;20.10;79.60;;;;;;4898739;29;20492;-27
2022/10/28 10:51:52;;;;;;;7.68;3.63;;;20.10;79.50;;;;;;4898292;29;20024;-32
2022/10/28 10:54:18;;;;;;;11.05;4.20;;;20.20;79.40;;;;;;4898399;29;20029;-27
2022/10/28 10:56:43;;;;;;;6.25;3.33;;;20.20;79.20;;;;;;4897973;29;20100;-30
2022/10/28 10:59:25;;;;;;;8.95;3.60;;;20.30;79.10;;;;;;4897840;29;20073;-29
2022/10/28 11:01:50;;;;;;;6.45;3.30;;;20.30;79.10;;;;;;4897683;29;20067;-30
2022/10/28 11:04:19;;;;;;;10.25;3.85;;;20.40;79.10;;;;;;4897928;29;20036;-32
2022/10/28 11:06:50;;;;;;;10.75;3.40;;;20.40;78.90;;;;;;4898203;29;20029;-33
2022/10/28 11:09:35;;;;;;;7.15;3.33;;;20.40;78.70;;;;;;4897760;29;20073;-26
2022/10/28 11:12:13;;;;;;;7.43;3.63;;;20.50;78.50;;;;;;4897567;29;20040;-33
2022/10/28 11:14:51;;;;;;;4.78;3.15;;;20.60;78.50;;;;;;4897868;29;20031;-35
2022/10/28 11:17:24;;;;;;;6.85;3.25;;;20.60;78.40;;;;;;4897501;29;20031;-34
2022/10/28 11:19:54;;;;;;;10.85;3.35;;;20.70;78.20;;;;;;4897695;29;20025;-34
2022/10/28 11:22:46;;;;;;;6.05;2.85;;;20.80;78.00;;;;;;4897832;29;20460;-34
2022/10/28 11:25:34;;;;;;;7.95;3.15;;;20.80;77.60;;;;;;4880711;29;20037;-31
2022/10/28 11:28:05;;;;;;;6.68;3.00;;;20.90;77.40;;;;;;4897847;29;20128;-44
2022/10/28 11:30:33;;;;;;;6.90;2.85;;;20.90;77.30;;;;;;4897466;29;20032;-40
2022/10/28 11:33:13;;;;;;;7.53;3.05;;;21.00;77.00;;;;;;4897608;29;20036;-41
2022/10/28 11:36:06;;;;;;;6.57;2.88;;;21.10;76.80;;;;;;4897496;29;20053;-42
2022/10/28 11:39:10;;;;;;;5.65;2.85;;;21.10;76.70;;;;;;4897496;29;20025;-44
2022/10/28 11:41:38;;;;;;;6.82;2.88;;;21.20;76.60;;;;;;4897595;29;20111;-43
2022/10/28 11:44:24;;;;;;;4.75;2.83;;;21.20;76.60;;;;;;4897610;29;20028;-43
2022/10/28 11:47:24;;;;;;;8.88;3.40;;;21.30;76.40;;;;;;4897467;29;20031;-42
2022/10/28 11:50:03;;;;;;;5.28;3.10;;;21.40;76.20;;;;;;4897455;29;20043;-43
2022/10/28 11:52:31;;;;;;;8.60;2.92;;;21.40;76.00;;;;;;4897171;29;20028;-43
2022/10/28 11:55:07;;;;;;;5.38;2.72;;;21.50;75.80;;;;;;4897427;29;20393;-46
2022/10/28 11:57:53;;;;;;;7.35;3.15;;;21.50;75.50;;;;;;4897279;29;20029;-43
2022/10/28 12:00:46;;;;;;;9.80;3.03;;;21.50;75.30;;;;;;4897161;29;20048;-47
2022/10/28 12:03:40;;;;;;;5.07;3.10;;;21.60;75.20;;;;;;4897597;29;20029;-44
2022/10/28 12:06:13;;;;;;;;;;;21.60;74.90;;;;;;4897730;29;20348;-44
2022/10/28 12:08:48;;;;;;;;;;;21.70;75.10;;;;;;4897703;29;19912;-43
2022/10/28 12:11:25;;;;;;;9.90;2.90;;;21.70;75.10;;;;;;4897275;29;19936;-41
2022/10/28 12:14:06;;;;;;;8.55;3.42;;;21.70;74.50;;;;;;4897280;29;20143;-42
2022/10/28 12:16:47;;;;;;;8.48;3.30;;;21.70;74.40;;;;;;4897236;29;20029;-42
2022/10/28 12:19:26;;;;;;;11.07;2.80;;;21.70;74.50;;;;;;4897217;29;20024;-44
2022/10/28 12:22:21;;;;;;;5.28;2.95;;;21.70;74.30;;;;;;4897318;29;20029;-42
2022/10/28 12:24:49;;;;;;;6.35;3.00;;;21.80;74.40;;;;;;4897101;29;20029;-43
2022/10/28 12:27:15;;;;;;;7.40;2.95;;;21.80;74.50;;;;;;4897247;29;20028;-42
2022/10/28 12:29:46;;;;;;;6.18;2.75;;;21.80;74.30;;;;;;4897037;29;20029;-43
2022/10/28 12:32:25;;;;;;;10.52;3.05;;;21.90;74.20;;;;;;4897068;29;20036;-41
2022/10/28 12:34:59;;;;;;;7.20;2.92;;;21.90;74.30;;;;;;4880298;29;20029;-42
2022/10/28 12:37:38;;;;;;;9.30;3.45;;;21.90;74.20;;;;;;4880216;29;20028;-43
2022/10/28 12:40:12;;;;;;;9.32;3.00;;;21.90;74.00;;;;;;4897066;29;20048;-42
2022/10/28 12:42:46;;;;;;;9.82;3.17;;;22.00;73.90;;;;;;4896996;29;20505;-44
2022/10/28 12:45:15;;;;;;;12.95;3.25;;;22.00;73.80;;;;;;4897077;29;20029;-43
2022/10/28 12:47:53;;;;;;;10.30;3.00;;;22.00;73.30;;;;;;4897753;29;20028;-42
2022/10/28 12:50:22;;;;;;;8.07;3.00;;;22.00;73.10;;;;;;4900744;29;20097;-42
2022/10/28 12:53:00;;;;;;;8.23;3.10;;;22.00;72.90;;;;;;4900720;29;20115;-43
2022/10/28 12:55:50;;;;;;;8.13;3.05;;;22.10;72.90;;;;;;4900791;29;20048;-43
2022/10/28 12:58:29;;;;;;;7.72;3.22;;;22.00;72.70;;;;;;4900718;29;20233;-42
2022/10/28 13:00:59;;;;;;;7.18;2.88;;;22.10;72.60;;;;;;4900567;29;20060;-41
2022/10/28 13:03:25;;;;;;;12.20;3.72;;;22.00;72.20;;;;;;4900586;29;20028;-42
2022/10/28 13:06:13;;;;;;;7.88;2.80;;;22.00;72.20;;;;;;4900486;29;20142;-43